createdAt,value
2018-03-03T00:00:45.303Z,-0.96
2018-03-03T00:03:13.383Z,-0.56
2018-03-03T00:05:41.429Z,-0.64
2018-03-03T00:08:09.561Z,-0.66
2018-03-03T00:10:37.678Z,-0.32
2018-03-03T00:13:06.194Z,-0.03
2018-03-03T00:15:34.274Z,0.00
2018-03-03T00:18:02.421Z,-0.36
2018-03-03T00:20:30.434Z,-0.57
2018-03-03T00:22:58.515Z,-0.80
2018-03-03T00:25:26.622Z,-0.79
2018-03-03T00:27:54.557Z,-0.52
2018-03-03T00:30:22.527Z,-0.51
2018-03-03T00:32:50.482Z,-0.55
2018-03-03T00:35:18.567Z,-0.56
2018-03-03T00:37:46.640Z,-0.34
2018-03-03T00:40:14.600Z,-0.53
2018-03-03T00:42:42.686Z,-0.63
2018-03-03T00:45:10.647Z,-0.66
2018-03-03T00:47:38.727Z,-0.83
2018-03-03T00:50:06.812Z,-1.03
2018-03-03T00:52:34.896Z,-1.17
2018-03-03T00:55:02.860Z,-1.30
2018-03-03T00:57:30.775Z,-1.33
2018-03-03T00:59:58.891Z,-1.38
2018-03-03T01:02:26.977Z,-1.32
2018-03-03T01:04:55.063Z,-1.33
2018-03-03T01:07:23.022Z,-1.46
2018-03-03T01:09:50.980Z,-1.39
2018-03-03T01:14:51.824Z,-1.40
2018-03-03T01:17:19.654Z,-1.36
2018-03-03T01:19:47.621Z,-1.42
2018-03-03T01:22:15.698Z,-1.50
2018-03-03T01:24:43.665Z,-1.49
2018-03-03T01:27:11.628Z,-1.52
2018-03-03T01:29:39.584Z,-1.47
2018-03-03T01:32:07.552Z,-1.51
2018-03-03T01:34:35.509Z,-1.50
2018-03-03T01:37:03.472Z,-1.50
2018-03-03T01:39:31.316Z,-1.49
2018-03-03T01:41:59.270Z,-1.51
2018-03-03T01:44:27.235Z,-1.59
2018-03-03T01:46:55.328Z,-1.57
2018-03-03T01:49:23.399Z,-1.49
2018-03-03T01:51:51.364Z,-1.48
2018-03-03T01:54:19.200Z,-1.41
2018-03-03T01:56:47.279Z,-1.40
2018-03-03T01:59:15.248Z,-1.43
2018-03-03T02:01:43.323Z,-1.45
2018-03-03T02:04:11.165Z,-1.37
2018-03-03T02:06:39.125Z,-1.26
2018-03-03T02:09:07.092Z,-1.17
2018-03-03T02:11:35.056Z,-1.22
2018-03-03T02:14:02.899Z,-1.25
2018-03-03T02:16:30.971Z,-1.28
2018-03-03T02:18:59.063Z,-1.24
2018-03-03T02:21:27.006Z,-1.13
2018-03-03T02:26:28.934Z,-1.21
2018-03-03T02:28:56.772Z,-1.20
2018-03-03T02:31:24.625Z,-1.16
2018-03-03T02:33:52.702Z,-1.00
2018-03-03T02:36:20.664Z,-1.20
2018-03-03T02:38:48.623Z,-1.36
2018-03-03T02:41:16.458Z,-1.40
2018-03-03T02:43:44.425Z,-1.50
2018-03-03T02:46:12.270Z,-1.43
2018-03-03T02:48:40.360Z,-1.33
2018-03-03T02:51:08.190Z,-1.26
2018-03-03T02:53:36.147Z,-0.99
2018-03-03T02:56:04.235Z,-1.09
2018-03-03T02:58:32.188Z,-1.00
2018-03-03T03:01:00.717Z,-1.03
2018-03-03T03:03:28.706Z,-1.11
2018-03-03T03:05:56.677Z,-1.23
2018-03-03T03:08:24.635Z,-1.17
2018-03-03T03:10:52.483Z,-1.18
2018-03-03T03:13:20.446Z,-1.19
2018-03-03T03:15:48.516Z,-1.07
2018-03-03T03:18:16.483Z,-1.09
2018-03-03T03:20:44.558Z,-1.22
2018-03-03T03:23:12.531Z,-1.24
2018-03-03T03:25:40.444Z,-1.33
2018-03-03T03:28:08.443Z,-1.35
2018-03-03T03:30:36.292Z,-1.38
2018-03-03T03:33:04.448Z,-1.29
2018-03-03T03:35:32.443Z,-1.31
2018-03-03T03:38:00.409Z,-1.40
2018-03-03T03:40:28.492Z,-1.42
2018-03-03T03:42:56.652Z,-1.42
2018-03-03T03:45:24.653Z,-1.36
2018-03-03T03:47:52.625Z,-1.33
2018-03-03T03:50:20.575Z,-1.14
2018-03-03T03:52:48.512Z,-1.12
2018-03-03T03:55:16.513Z,-1.00
2018-03-03T03:57:44.470Z,-0.96
2018-03-03T04:00:12.780Z,-1.18
2018-03-03T04:02:40.742Z,-1.26
2018-03-03T04:05:08.703Z,-1.25
2018-03-03T04:07:36.624Z,-1.30
2018-03-03T04:10:04.630Z,-1.32
2018-03-03T04:12:32.490Z,-1.19
2018-03-03T04:15:00.555Z,-1.02
2018-03-03T04:17:28.511Z,-0.92
2018-03-03T04:19:56.593Z,-1.10
2018-03-03T04:22:24.630Z,-1.16
2018-03-03T04:24:52.750Z,-1.17
2018-03-03T04:27:20.711Z,-1.21
2018-03-03T04:29:48.675Z,-1.23
2018-03-03T04:32:16.644Z,-1.27
2018-03-03T04:34:44.714Z,-1.36
2018-03-03T04:37:12.793Z,-1.39
2018-03-03T04:39:40.660Z,-1.41
2018-03-03T04:42:08.602Z,-1.45
2018-03-03T04:44:36.560Z,-1.40
2018-03-03T04:47:04.518Z,-1.32
2018-03-03T04:49:32.490Z,-1.29
2018-03-03T04:52:00.562Z,-1.30
2018-03-03T04:54:28.648Z,-1.32
2018-03-03T04:56:56.604Z,-1.39
2018-03-03T04:59:26.124Z,-1.35
2018-03-03T05:02:08.975Z,-1.34
2018-03-03T05:04:42.573Z,-1.33
2018-03-03T05:10:10.090Z,-1.33
2018-03-03T05:12:40.243Z,-1.35
2018-03-03T05:15:24.679Z,-1.35
2018-03-03T05:21:04.887Z,-1.41
2018-03-03T05:23:38.340Z,-1.42
2018-03-03T05:26:11.618Z,-1.40
2018-03-03T05:31:53.200Z,-1.27
2018-03-03T05:37:31.472Z,-1.01
2018-03-03T05:43:24.384Z,-0.98
2018-03-03T05:45:57.536Z,-0.96
2018-03-03T05:48:30.916Z,-1.10
2018-03-03T05:51:04.057Z,-0.88
2018-03-03T05:53:37.391Z,-0.99
2018-03-03T05:56:06.867Z,-1.07
2018-03-03T05:58:40.284Z,-1.18
2018-03-03T06:01:10.307Z,-1.08
2018-03-03T06:03:48.724Z,-1.13
2018-03-03T06:06:19.280Z,-1.18
2018-03-03T06:08:56.874Z,-1.25
2018-03-03T06:11:24.533Z,-1.30
2018-03-03T06:13:52.240Z,-1.37
2018-03-03T06:16:19.857Z,-1.31
2018-03-03T06:18:47.565Z,-1.29
2018-03-03T06:21:15.204Z,-1.33
2018-03-03T06:23:42.912Z,-1.36
2018-03-03T06:26:10.528Z,-1.39
2018-03-03T06:28:38.213Z,-1.32
2018-03-03T06:31:05.823Z,-1.10
2018-03-03T06:33:33.513Z,-0.97
2018-03-03T06:36:01.226Z,-0.91
2018-03-03T06:38:28.889Z,-0.94
2018-03-03T06:40:56.519Z,-0.74
2018-03-03T06:43:24.197Z,-0.63
2018-03-03T06:45:51.837Z,-0.74
2018-03-03T06:48:19.509Z,-0.92
2018-03-03T06:50:47.171Z,-0.98
2018-03-03T06:53:14.780Z,-1.14
2018-03-03T06:55:42.440Z,-1.39
2018-03-03T06:58:10.060Z,-1.41
2018-03-03T07:00:37.763Z,-1.43
2018-03-03T07:03:05.368Z,-1.48
2018-03-03T07:05:33.032Z,-1.53
2018-03-03T07:08:00.706Z,-1.49
2018-03-03T07:10:28.359Z,-1.45
2018-03-03T07:12:56.035Z,-1.46
2018-03-03T07:15:23.736Z,-1.47
2018-03-03T07:17:51.340Z,-1.48
2018-03-03T07:20:18.989Z,-1.38
2018-03-03T07:22:46.612Z,-1.05
2018-03-03T07:25:14.288Z,-0.89
2018-03-03T07:27:41.960Z,-0.77
2018-03-03T07:30:09.703Z,-0.75
2018-03-03T07:32:37.342Z,-0.87
2018-03-03T07:35:05.034Z,-0.92
2018-03-03T07:37:32.757Z,-0.85
2018-03-03T07:40:00.539Z,-0.92
2018-03-03T07:42:28.208Z,-0.92
2018-03-03T07:44:55.885Z,-0.91
2018-03-03T07:47:23.506Z,-0.91
2018-03-03T07:49:51.218Z,-0.94
2018-03-03T07:52:18.854Z,-0.87
2018-03-03T07:54:46.687Z,-0.88
2018-03-03T07:57:14.312Z,-0.85
2018-03-03T07:59:41.947Z,-0.78
2018-03-03T08:02:09.632Z,-0.66
2018-03-03T08:04:37.339Z,-0.40
2018-03-03T08:07:05.053Z,-0.25
2018-03-03T08:09:32.736Z,-0.07
2018-03-03T08:12:00.388Z,-0.07
2018-03-03T08:14:28.026Z,-0.06
2018-03-03T08:16:55.698Z,0.02
2018-03-03T08:19:23.338Z,-0.01
2018-03-03T08:21:50.994Z,0.09
2018-03-03T08:24:18.622Z,0.35
2018-03-03T08:26:46.286Z,0.46
2018-03-03T08:29:13.940Z,0.63
2018-03-03T08:31:41.616Z,0.78
2018-03-03T08:34:09.438Z,0.54
2018-03-03T08:36:37.096Z,0.37
2018-03-03T08:39:04.788Z,0.26
2018-03-03T08:41:32.452Z,0.24
2018-03-03T08:44:00.064Z,0.10
2018-03-03T08:46:27.793Z,0.08
2018-03-03T08:48:55.470Z,-0.01
2018-03-03T08:51:23.207Z,0.03
2018-03-03T08:53:50.965Z,0.06
2018-03-03T08:56:18.636Z,0.29
2018-03-03T08:58:46.318Z,0.39
2018-03-03T09:01:13.949Z,0.23
2018-03-03T09:03:41.613Z,0.24
2018-03-03T09:06:09.245Z,0.26
2018-03-03T09:08:37.082Z,0.32
2018-03-03T09:11:04.703Z,0.36
2018-03-03T09:13:32.392Z,0.38
2018-03-03T09:16:00.424Z,0.42
2018-03-03T09:18:28.190Z,0.34
2018-03-03T09:20:55.813Z,0.28
2018-03-03T09:23:23.721Z,0.20
2018-03-03T09:25:51.671Z,0.23
2018-03-03T09:28:19.857Z,0.26
2018-03-03T09:30:47.691Z,0.32
2018-03-03T09:33:15.424Z,0.46
2018-03-03T09:35:43.802Z,0.41
2018-03-03T09:38:11.509Z,0.49
2018-03-03T09:40:39.136Z,0.57
2018-03-03T09:43:06.808Z,0.65
2018-03-03T09:45:34.588Z,0.87
2018-03-03T09:48:02.584Z,0.76
2018-03-03T09:50:30.253Z,0.89
2018-03-03T09:52:57.871Z,0.95
2018-03-03T09:55:25.610Z,1.18
2018-03-03T09:57:53.272Z,1.27
2018-03-03T10:00:21.026Z,1.43
2018-03-03T10:02:48.671Z,1.43
2018-03-03T10:05:16.311Z,1.73
2018-03-03T10:07:43.954Z,1.64
2018-03-03T10:10:11.633Z,1.59
2018-03-03T10:12:39.261Z,1.51
2018-03-03T10:15:06.973Z,1.47
2018-03-03T10:17:34.584Z,1.69
2018-03-03T10:20:02.245Z,1.78
2018-03-03T10:22:30.259Z,1.45
2018-03-03T10:24:57.916Z,1.82
2018-03-03T10:27:25.565Z,0.98
2018-03-03T10:29:53.260Z,2.32
2018-03-03T10:32:21.543Z,2.50
2018-03-03T10:34:49.220Z,2.01
2018-03-03T10:37:16.891Z,2.13
2018-03-03T10:39:44.789Z,1.72
2018-03-03T10:42:12.661Z,1.34
2018-03-03T10:44:40.584Z,1.60
2018-03-03T10:47:08.569Z,1.10
2018-03-03T10:49:36.196Z,1.06
2018-03-03T10:52:03.884Z,1.37
2018-03-03T10:54:31.713Z,1.60
2018-03-03T10:56:59.498Z,1.58
2018-03-03T10:59:27.117Z,1.68
2018-03-03T11:01:54.792Z,1.98
2018-03-03T11:04:22.398Z,1.91
2018-03-03T11:06:50.047Z,1.97
2018-03-03T11:09:17.683Z,2.18
2018-03-03T11:11:45.383Z,2.40
2018-03-03T11:14:12.990Z,2.45
2018-03-03T11:16:40.640Z,2.54
2018-03-03T11:19:08.244Z,2.87
2018-03-03T11:21:35.897Z,3.09
2018-03-03T11:24:03.552Z,3.16
2018-03-03T11:26:31.207Z,3.33
2018-03-03T11:28:58.836Z,3.21
2018-03-03T11:31:26.503Z,2.57
2018-03-03T11:33:54.146Z,2.58
2018-03-03T11:36:21.789Z,2.83
2018-03-03T11:38:49.409Z,2.35
2018-03-03T11:41:17.088Z,2.72
2018-03-03T11:43:44.692Z,2.97
2018-03-03T11:46:12.357Z,2.92
2018-03-03T11:48:39.984Z,2.80
2018-03-03T11:51:07.591Z,2.76
2018-03-03T11:53:35.236Z,2.68
2018-03-03T11:56:02.862Z,2.48
2018-03-03T11:58:36.607Z,2.31
2018-03-03T12:01:04.210Z,2.33
2018-03-03T12:03:31.865Z,2.07
2018-03-03T12:05:59.472Z,1.90
2018-03-03T12:08:27.238Z,1.86
2018-03-03T12:10:54.868Z,1.58
2018-03-03T12:13:22.521Z,1.44
2018-03-03T12:15:50.133Z,1.33
2018-03-03T12:18:17.808Z,1.35
2018-03-03T12:20:45.427Z,1.55
2018-03-03T12:23:13.076Z,1.66
2018-03-03T12:25:40.698Z,1.76
2018-03-03T12:28:08.392Z,1.87
2018-03-03T12:30:36.005Z,1.83
2018-03-03T12:33:03.660Z,1.88
2018-03-03T12:35:31.313Z,2.00
2018-03-03T12:37:58.983Z,2.32
2018-03-03T12:40:26.610Z,2.29
2018-03-03T12:42:54.304Z,2.28
2018-03-03T12:45:21.918Z,2.21
2018-03-03T12:47:49.525Z,2.07
2018-03-03T12:50:17.180Z,1.80
2018-03-03T12:52:44.828Z,1.78
2018-03-03T12:55:12.479Z,1.86
2018-03-03T12:57:40.100Z,1.83
2018-03-03T13:00:07.757Z,1.87
2018-03-03T13:02:35.371Z,1.64
2018-03-03T13:05:03.109Z,1.93
2018-03-03T13:07:30.734Z,1.80
2018-03-03T13:09:58.382Z,2.12
2018-03-03T13:12:26.000Z,2.15
2018-03-03T13:14:53.696Z,2.20
2018-03-03T13:17:21.322Z,2.22
2018-03-03T13:19:48.981Z,2.24
2018-03-03T13:22:16.612Z,2.11
2018-03-03T13:24:44.271Z,2.18
2018-03-03T13:27:11.908Z,2.17
2018-03-03T13:29:45.369Z,2.17
2018-03-03T13:32:12.989Z,1.99
2018-03-03T13:34:40.668Z,1.85
2018-03-03T13:37:08.288Z,1.87
2018-03-03T13:39:35.972Z,2.02
2018-03-03T13:42:03.604Z,2.04
2018-03-03T13:44:31.228Z,1.94
2018-03-03T13:46:58.885Z,1.96
2018-03-03T13:49:26.499Z,2.20
2018-03-03T13:51:54.176Z,2.39
2018-03-03T13:54:21.798Z,2.67
2018-03-03T13:56:49.480Z,2.85
2018-03-03T13:59:17.099Z,2.77
2018-03-03T14:01:44.746Z,2.84
2018-03-03T14:04:12.405Z,2.30
2018-03-03T14:06:40.074Z,2.55
2018-03-03T14:09:07.728Z,2.33
2018-03-03T14:11:35.389Z,2.50
2018-03-03T14:14:02.992Z,2.77
2018-03-03T14:16:30.657Z,2.99
2018-03-03T14:18:58.289Z,2.92
2018-03-03T14:21:25.943Z,2.65
2018-03-03T14:23:53.624Z,2.52
2018-03-03T14:26:21.268Z,2.47
2018-03-03T14:28:48.872Z,2.47
2018-03-03T14:31:16.546Z,2.23
2018-03-03T14:33:44.148Z,2.33
2018-03-03T14:36:11.770Z,2.30
2018-03-03T14:38:39.452Z,2.21
2018-03-03T14:41:07.126Z,2.35
2018-03-03T14:43:34.825Z,2.61
2018-03-03T14:46:02.452Z,2.70
2018-03-03T14:48:30.106Z,2.58
2018-03-03T14:50:57.736Z,2.76
2018-03-03T14:53:25.401Z,2.43
2018-03-03T14:55:53.047Z,2.45
2018-03-03T14:58:20.709Z,2.47
2018-03-03T15:00:48.317Z,2.42
2018-03-03T15:03:16.047Z,2.50
2018-03-03T15:05:43.711Z,2.50
2018-03-03T15:08:11.367Z,2.39
2018-03-03T15:10:38.991Z,2.54
2018-03-03T15:13:06.652Z,2.44
2018-03-03T15:15:34.405Z,2.63
2018-03-03T15:18:02.061Z,2.59
2018-03-03T15:20:29.669Z,2.76
2018-03-03T15:22:57.340Z,2.74
2018-03-03T15:25:25.009Z,2.67
2018-03-03T15:27:52.656Z,2.75
2018-03-03T15:30:20.293Z,2.85
2018-03-03T15:32:47.943Z,2.77
2018-03-03T15:35:15.618Z,2.70
2018-03-03T15:37:43.272Z,2.67
2018-03-03T15:40:10.941Z,2.74
2018-03-03T15:42:38.608Z,2.69
2018-03-03T15:45:06.309Z,2.68
2018-03-03T15:47:33.946Z,2.59
2018-03-03T15:50:01.596Z,2.54
2018-03-03T15:52:29.240Z,2.64
2018-03-03T15:54:56.933Z,2.63
2018-03-03T15:57:24.575Z,2.77
2018-03-03T15:59:52.230Z,2.62
2018-03-03T16:02:19.885Z,2.51
2018-03-03T16:04:47.616Z,2.40
2018-03-03T16:07:15.253Z,2.36
2018-03-03T16:09:42.908Z,2.41
2018-03-03T16:12:10.575Z,2.41
2018-03-03T16:14:38.280Z,2.44
2018-03-03T16:17:07.335Z,2.51
2018-03-03T16:19:33.576Z,2.71
2018-03-03T16:22:01.196Z,2.83
2018-03-03T16:24:28.864Z,2.89
2018-03-03T16:26:56.474Z,2.77
2018-03-03T16:29:24.117Z,2.98
2018-03-03T16:31:51.721Z,3.01
2018-03-03T16:34:19.396Z,2.89
2018-03-03T16:36:47.008Z,3.03
2018-03-03T16:39:14.649Z,3.18
2018-03-03T16:41:42.339Z,3.13
2018-03-03T16:44:09.971Z,3.11
2018-03-03T16:46:37.664Z,3.20
2018-03-03T16:49:05.333Z,3.26
2018-03-03T16:51:32.993Z,3.41
2018-03-03T16:54:00.633Z,3.45
2018-03-03T16:56:28.392Z,3.36
2018-03-03T16:58:56.028Z,3.43
2018-03-03T17:01:23.692Z,3.59
2018-03-03T17:03:51.308Z,3.70
2018-03-03T17:06:18.957Z,3.74
2018-03-03T17:08:46.586Z,3.77
2018-03-03T17:11:14.244Z,3.62
2018-03-03T17:13:41.892Z,3.63
2018-03-03T17:16:09.551Z,3.67
2018-03-03T17:18:37.181Z,3.67
2018-03-03T17:21:04.896Z,3.66
2018-03-03T17:23:32.516Z,3.58
2018-03-03T17:26:00.182Z,3.52
2018-03-03T17:28:27.921Z,3.55
2018-03-03T17:30:55.572Z,3.52
2018-03-03T17:33:23.187Z,3.57
2018-03-03T17:35:50.907Z,3.60
2018-03-03T17:38:18.540Z,3.68
2018-03-03T17:40:46.140Z,3.73
2018-03-03T17:43:13.806Z,3.80
2018-03-03T17:45:41.452Z,3.82
2018-03-03T17:48:09.105Z,3.83
2018-03-03T17:50:36.719Z,3.89
2018-03-03T17:53:04.364Z,3.89
2018-03-03T17:55:31.980Z,3.92
2018-03-03T17:57:59.635Z,3.96
2018-03-03T18:00:27.325Z,3.87
2018-03-03T18:02:54.978Z,3.85
2018-03-03T18:05:22.601Z,3.87
2018-03-03T18:07:50.255Z,3.91
2018-03-03T18:10:17.878Z,3.89
2018-03-03T18:12:45.531Z,4.01
2018-03-03T18:15:13.162Z,3.97
2018-03-03T18:17:40.829Z,3.93
2018-03-03T18:20:08.438Z,3.83
2018-03-03T18:22:36.113Z,3.93
2018-03-03T18:25:03.984Z,3.96
2018-03-03T18:27:31.660Z,4.03
2018-03-03T18:29:59.329Z,4.08
2018-03-03T18:35:00.773Z,4.07
2018-03-03T18:37:28.443Z,4.08
2018-03-03T18:39:56.086Z,4.08
2018-03-03T18:42:23.803Z,4.06
2018-03-03T18:44:51.446Z,4.07
2018-03-03T18:47:19.065Z,4.18
2018-03-03T18:49:46.748Z,4.27
2018-03-03T18:52:14.384Z,4.15
2018-03-03T18:54:42.039Z,4.25
2018-03-03T18:57:09.689Z,4.17
2018-03-03T18:59:37.343Z,4.17
2018-03-03T19:02:04.948Z,4.11
2018-03-03T19:04:32.622Z,4.03
2018-03-03T19:07:00.238Z,3.81
2018-03-03T19:09:27.912Z,3.62
2018-03-03T19:11:55.517Z,3.46
2018-03-03T19:14:23.178Z,3.23
2018-03-03T19:16:50.861Z,3.31
2018-03-03T19:19:18.542Z,3.28
2018-03-03T19:21:46.164Z,3.08
2018-03-03T19:24:13.884Z,2.90
2018-03-03T19:26:41.549Z,2.76
2018-03-03T19:29:09.224Z,2.81
2018-03-03T19:31:36.861Z,2.82
2018-03-03T19:34:04.506Z,2.75
2018-03-03T19:36:32.138Z,2.85
2018-03-03T19:38:59.828Z,2.87
2018-03-03T19:41:27.436Z,2.72
2018-03-03T19:43:55.101Z,2.80
2018-03-03T19:46:22.709Z,2.88
2018-03-03T19:48:50.373Z,2.52
2018-03-03T19:51:18.017Z,2.53
2018-03-03T19:53:45.676Z,2.45
2018-03-03T19:56:13.301Z,2.70
2018-03-03T19:58:40.947Z,2.68
2018-03-03T20:01:08.558Z,2.50
2018-03-03T20:03:36.236Z,2.47
2018-03-03T20:06:03.856Z,2.56
2018-03-03T20:08:31.526Z,2.28
2018-03-03T20:10:59.163Z,2.36
2018-03-03T20:13:26.808Z,2.34
2018-03-03T20:15:54.508Z,2.37
2018-03-03T20:18:22.138Z,2.59
2018-03-03T20:20:49.783Z,2.46
2018-03-03T20:23:17.383Z,2.62
2018-03-03T20:25:45.092Z,2.56
2018-03-03T20:28:12.730Z,2.43
2018-03-03T20:30:40.442Z,2.30
2018-03-03T20:33:08.079Z,2.24
2018-03-03T20:35:35.731Z,2.28
2018-03-03T20:38:03.418Z,2.24
2018-03-03T20:40:31.081Z,2.21
2018-03-03T20:42:58.712Z,2.18
2018-03-03T20:45:26.368Z,2.21
2018-03-03T20:47:53.992Z,2.52
2018-03-03T20:50:21.660Z,2.50
2018-03-03T20:52:49.297Z,2.52
2018-03-03T20:55:16.984Z,2.58
2018-03-03T20:57:44.640Z,2.63
2018-03-03T21:00:12.324Z,2.61
2018-03-03T21:02:39.941Z,2.64
2018-03-03T21:05:07.597Z,2.52
2018-03-03T21:07:35.220Z,2.51
2018-03-03T21:10:02.895Z,2.49
2018-03-03T21:12:46.173Z,2.44
2018-03-03T21:15:13.848Z,2.54
2018-03-03T21:17:41.452Z,2.51
2018-03-03T21:20:09.101Z,2.63
2018-03-03T21:22:36.748Z,2.76
2018-03-03T21:25:04.733Z,2.61
2018-03-03T21:27:32.368Z,2.72
2018-03-03T21:29:59.978Z,2.74
2018-03-03T21:32:27.632Z,2.54
2018-03-03T21:34:55.262Z,2.60
2018-03-03T21:37:22.926Z,2.74
2018-03-03T21:39:50.554Z,2.44
2018-03-03T21:42:18.200Z,2.36
2018-03-03T21:44:45.841Z,2.24
2018-03-03T21:47:13.502Z,2.36
2018-03-03T21:49:41.137Z,2.13
2018-03-03T21:52:08.789Z,2.07
2018-03-03T21:54:36.423Z,2.15
2018-03-03T21:57:04.080Z,2.28
2018-03-03T21:59:31.702Z,2.43
2018-03-03T22:01:59.409Z,2.38
2018-03-03T22:04:27.028Z,2.37
2018-03-03T22:06:54.691Z,2.27
2018-03-03T22:09:22.295Z,2.24
2018-03-03T22:11:49.966Z,2.03
2018-03-03T22:14:17.580Z,1.97
2018-03-03T22:16:45.203Z,2.02
2018-03-03T22:19:12.868Z,2.14
2018-03-03T22:21:40.503Z,2.15
2018-03-03T22:24:08.161Z,1.96
2018-03-03T22:26:35.797Z,2.17
2018-03-03T22:29:03.460Z,2.15
2018-03-03T22:31:31.069Z,2.12
2018-03-03T22:33:58.753Z,1.93
2018-03-03T22:36:26.355Z,1.81
2018-03-03T22:38:54.016Z,1.84
2018-03-03T22:41:21.673Z,1.90
2018-03-03T22:43:49.345Z,1.75
2018-03-03T22:46:16.983Z,1.87
2018-03-03T22:48:44.664Z,1.87
2018-03-03T22:51:12.273Z,2.35
2018-03-03T22:53:39.943Z,2.46
2018-03-03T22:56:07.556Z,2.28
2018-03-03T22:59:10.769Z,2.31
2018-03-03T23:01:38.383Z,2.28
2018-03-03T23:04:06.061Z,2.19
2018-03-03T23:09:15.701Z,2.17
2018-03-03T23:11:43.390Z,2.23
2018-03-03T23:15:18.608Z,2.48
2018-03-03T23:17:46.212Z,2.40
2018-03-03T23:20:13.892Z,2.50
2018-03-03T23:22:41.526Z,2.63
2018-03-03T23:25:09.700Z,2.51
2018-03-03T23:27:37.359Z,2.46
2018-03-03T23:30:05.028Z,2.44
2018-03-03T23:32:32.653Z,2.58
2018-03-03T23:35:00.557Z,2.73
2018-03-03T23:37:28.168Z,2.70
2018-03-03T23:39:55.824Z,2.64
2018-03-03T23:42:23.477Z,2.64
2018-03-03T23:44:51.138Z,2.50
2018-03-03T23:47:18.759Z,2.48
2018-03-03T23:49:46.417Z,2.33
2018-03-03T23:52:14.065Z,2.38
2018-03-03T23:54:41.712Z,2.32
2018-03-03T23:57:09.327Z,2.28
2018-03-03T23:59:36.972Z,2.21
